Latest Weather Observations for Frankston Beach

IDV60901

Issued at 4:51 pm EST Tuesday 20 April 2021 (issued every 10 minutes, with the page automatically refreshed every 10 minutes)

About weather observations | Map of Melbourne area stations | Latest observations for Melbourne area | Other Formats
Station Details ID: 086371 Name: FRANKSTON BEACH Lat: -38.15 Lon: 145.12 Height: 6.0 m
Data from the previous 72 hours. | See also: Recent months at Frankston Beach
Date/Time
EST
Temp
°C
App
Temp
°C
Dew
Point
°C
Rel
Hum
%
Delta-T
°C
Wind Press
QNH
hPa
Press
MSL
hPa
Rain since
9am
mm
Dir  Spd
km/h
Gust
km/h
Spd
kts
Gust
kts
20/04:30pm - - - - - SSW 13 19 7 10 - - -
20/04:00pm - - - - - SSW 20 32 11 17 - - -
20/03:30pm - - - - - SSW 17 26 9 14 - - -
20/03:00pm - - - - - SW 19 28 10 15 - - -
20/02:30pm - - - - - WSW 28 33 15 18 - - -
20/02:15pm - - - - - W 33 43 18 23 - - -
20/02:00pm - - - - - W 32 37 17 20 - - -
20/01:30pm - - - - - W 28 33 15 18 - - -
20/01:27pm - - - - - W 30 37 16 20 - - -
20/01:00pm - - - - - WSW 41 48 22 26 - - -
20/12:30pm - - - - - WSW 35 46 19 25 - - -
20/12:00pm - - - - - WSW 39 48 21 26 - - -
20/11:30am - - - - - SW 43 50 23 27 - - -
20/11:00am - - - - - SW 37 46 20 25 - - -
20/10:30am - - - - - W 44 72 24 39 - - -
20/10:25am - - - - - NW 37 72 20 39 - - -
20/10:24am - - - - - NNW 33 72 18 39 - - -
20/10:00am - - - - - NNW 32 37 17 20 - - -
20/09:30am - - - - - N 33 43 18 23 - - -
20/09:00am - - - - - N 33 41 18 22 - - -
20/08:30am - - - - - N 33 37 18 20 - - -
20/08:00am - - - - - N 33 39 18 21 - - -
20/07:30am - - - - - N 35 39 19 21 - - -
20/07:00am - - - - - N 33 39 18 21 - - -
20/06:30am - - - - - N 33 39 18 21 - - -
20/06:00am - - - - - NNW 32 41 17 22 - - -
20/05:30am - - - - - NNW 32 37 17 20 - - -
20/05:00am - - - - - NW 32 37 17 20 - - -
20/04:30am - - - - - NNW 30 37 16 20 - - -
20/04:00am - - - - - NNW 24 30 13 16 - - -
20/03:30am - - - - - NNW 26 32 14 17 - - -
20/03:00am - - - - - NNW 30 37 16 20 - - -
20/02:30am - - - - - NNW 30 35 16 19 - - -
20/02:00am - - - - - NNW 30 35 16 19 - - -
20/01:30am - - - - - N 22 26 12 14 - - -
20/01:00am - - - - - NNW 28 35 15 19 - - -
20/12:30am - - - - - NNW 32 37 17 20 - - -
20/12:00am - - - - - NNW 33 39 18 21 - - -
 
Date/Time
EST
Temp
°C
App
Temp
°C
Dew
Point
°C
Rel
Hum
%
Delta-T
°C
Wind Press
QNH
hPa
Press
MSL
hPa
Rain since
9am
mm
Dir  Spd
km/h
Gust
km/h
Spd
kts
Gust
kts
19/11:30pm - - - - - NNW 26 32 14 17 - - -
19/11:00pm - - - - - N 20 28 11 15 - - -
19/10:30pm - - - - - N 15 17 8 9 - - -
19/10:00pm - - - - - N 17 19 9 10 - - -
19/09:30pm - - - - - NNW 11 15 6 8 - - -
19/09:00pm - - - - - NNW 20 26 11 14 - - -
19/08:30pm - - - - - NNW 22 28 12 15 - - -
19/08:00pm - - - - - NNW 24 30 13 16 - - -
19/07:30pm - - - - - NNW 26 32 14 17 - - -
19/07:00pm - - - - - NW 22 28 12 15 - - -
19/06:30pm - - - - - NW 17 22 9 12 - - -
19/06:00pm - - - - - NNW 15 19 8 10 - - -
19/05:30pm - - - - - NNW 15 19 8 10 - - -
19/05:00pm - - - - - N 13 15 7 8 - - -
19/04:30pm - - - - - NNW 15 17 8 9 - - -
19/04:00pm - - - - - N 13 15 7 8 - - -
19/03:30pm - - - - - NNW 11 13 6 7 - - -
19/03:00pm - - - - - NNW 9 13 5 7 - - -
19/02:30pm - - - - - NW 13 15 7 8 - - -
19/02:00pm - - - - - NNW 11 13 6 7 - - -
19/01:30pm - - - - - NW 13 15 7 8 - - -
19/01:00pm - - - - - NNW 17 19 9 10 - - -
19/12:30pm - - - - - NNW 15 17 8 9 - - -
19/12:00pm - - - - - NNW 17 20 9 11 - - -
19/11:30am - - - - - NW 20 24 11 13 - - -
19/11:00am - - - - - NNW 22 26 12 14 - - -
19/10:30am - - - - - NNW 24 28 13 15 - - -
19/10:00am - - - - - NW 24 28 13 15 - - -
19/09:30am - - - - - NW 28 32 15 17 - - -
19/09:00am - - - - - NW 28 35 15 19 - - -
19/08:30am - - - - - WNW 28 35 15 19 - - -
19/08:00am - - - - - WNW 28 32 15 17 - - -
19/07:30am - - - - - WNW 28 32 15 17 - - -
19/07:00am - - - - - WNW 28 33 15 18 - - -
19/06:30am - - - - - WNW 28 33 15 18 - - -
19/06:00am - - - - - WNW 24 30 13 16 - - -
19/05:30am - - - - - WNW 30 35 16 19 - - -
19/05:00am - - - - - WNW 24 30 13 16 - - -
19/04:30am - - - - - WNW 24 30 13 16 - - -
19/04:00am - - - - - WNW 24 28 13 15 - - -
19/03:30am - - - - - WNW 24 28 13 15 - - -
19/03:00am - - - - - WNW 24 30 13 16 - - -
19/02:30am - - - - - W 26 30 14 16 - - -
19/02:00am - - - - - WNW 20 26 11 14 - - -
19/01:30am - - - - - WNW 20 26 11 14 - - -
19/01:00am - - - - - WNW 19 24 10 13 - - -
19/12:30am - - - - - W 20 24 11 13 - - -
19/12:00am - - - - - W 19 24 10 13 - - -
 
Date/Time
EST
Temp
°C
App
Temp
°C
Dew
Point
°C
Rel
Hum
%
Delta-T
°C
Wind Press
QNH
hPa
Press
MSL
hPa
Rain since
9am
mm
Dir  Spd
km/h
Gust
km/h
Spd
kts
Gust
kts
18/11:30pm - - - - - W 19 22 10 12 - - -
18/11:00pm - - - - - W 22 28 12 15 - - -
18/10:30pm - - - - - W 20 26 11 14 - - -
18/10:00pm - - - - - W 22 26 12 14 - - -
18/09:30pm - - - - - W 22 26 12 14 - - -
18/09:00pm - - - - - WNW 19 24 10 13 - - -
18/08:30pm - - - - - NW 13 15 7 8 - - -
18/08:00pm - - - - - WNW 9 11 5 6 - - -
18/07:30pm - - - - - W 9 11 5 6 - - -
18/07:00pm - - - - - CALM 0 0 0 0 - - -
18/06:30pm - - - - - SW 9 11 5 6 - - -
18/06:00pm - - - - - SW 7 9 4 5 - - -
18/05:30pm - - - - - SW 11 13 6 7 - - -
18/05:00pm - - - - - SW 9 9 5 5 - - -
18/04:30pm - - - - - SW 9 11 5 6 - - -
18/04:00pm - - - - - W 13 24 7 13 - - -
18/03:30pm - - - - - W 17 19 9 10 - - -
18/03:00pm - - - - - W 17 19 9 10 - - -
18/02:30pm - - - - - W 20 26 11 14 - - -
18/02:00pm - - - - - W 22 28 12 15 - - -
18/01:30pm - - - - - WNW 15 17 8 9 - - -
18/01:00pm - - - - - WNW 15 19 8 10 - - -
18/12:30pm - - - - - W 22 26 12 14 - - -
18/12:00pm - - - - - WNW 19 24 10 13 - - -
18/11:30am - - - - - W 20 26 11 14 - - -
18/11:00am - - - - - WNW 19 24 10 13 - - -
18/10:30am - - - - - WNW 22 28 12 15 - - -
18/10:00am - - - - - WNW 22 26 12 14 - - -
18/09:30am - - - - - WNW 22 28 12 15 - - -
18/09:00am - - - - - W 24 32 13 17 - - -
18/08:30am - - - - - W 28 32 15 17 - - -
18/08:00am - - - - - W 22 26 12 14 - - -
18/07:30am - - - - - W 24 28 13 15 - - -
18/07:00am - - - - - W 26 30 14 16 - - -
18/06:30am - - - - - W 24 30 13 16 - - -
18/06:00am - - - - - WNW 22 26 12 14 - - -
18/05:30am - - - - - WNW 20 26 11 14 - - -
18/05:00am - - - - - W 22 28 12 15 - - -
18/04:30am - - - - - W 24 28 13 15 - - -
18/04:00am - - - - - WSW 24 30 13 16 - - -
18/03:30am - - - - - WSW 19 22 10 12 - - -
18/03:00am - - - - - W 19 22 10 12 - - -
18/02:30am - - - - - W 22 26 12 14 - - -
18/02:00am - - - - - W 19 22 10 12 - - -
18/01:30am - - - - - W 19 20 10 11 - - -
18/01:00am - - - - - W 26 30 14 16 - - -
18/12:30am - - - - - W 24 28 13 15 - - -
18/12:00am - - - - - W 20 24 11 13 - - -
 
Date/Time
EST
Temp
°C
App
Temp
°C
Dew
Point
°C
Rel
Hum
%
Delta-T
°C
Wind Press
QNH
hPa
Press
MSL
hPa
Rain since
9am
mm
Dir  Spd
km/h
Gust
km/h
Spd
kts
Gust
kts
17/11:30pm - - - - - WSW 13 17 7 9 - - -
17/11:00pm - - - - - ENE 7 9 4 5 - - -
17/10:30pm - - - - - ENE 9 13 5 7 - - -
17/10:00pm - - - - - E 6 7 3 4 - - -
17/09:30pm - - - - - CALM 0 0 0 0 - - -
17/09:00pm - - - - - ENE 6 7 3 4 - - -
17/08:30pm - - - - - E 6 7 3 4 - - -
17/08:00pm - - - - - CALM 0 0 0 0 - - -
17/07:30pm - - - - - CALM 0 0 0 0 - - -
17/07:00pm - - - - - CALM 0 0 0 0 - - -
17/06:30pm - - - - - NNW 9 11 5 6 - - -
17/06:00pm - - - - - NNW 9 11 5 6 - - -
17/05:30pm - - - - - NNW 6 7 3 4 - - -
17/05:00pm - - - - - NW 6 7 3 4 - - -

Latest Capital City Observations: Canberra | Sydney | Melbourne | Brisbane | Adelaide | Perth | Hobart | Darwin

Other formats

Comma delimited format used in spreadsheet applications
http://www.bom.gov.au/fwo/IDV60901/IDV60901.94871.axf

JavaScript Object Notation format (JSON) in row-major order
http://www.bom.gov.au/fwo/IDV60901/IDV60901.94871.json

Data quality

Most of these data are generated automatically and are frequently updated. Quality checks on data are not normally performed. It is possible for incorrect values to appear. Refer to information at About Latest Weather Observations and please check the disclaimer before using these data.